createdAt,value
2022-12-03T00:02:55.682Z,23.83
2022-12-03T00:06:58.633Z,22.73
2022-12-03T00:11:01.466Z,23.27
2022-12-03T00:15:07.049Z,23.67
2022-12-03T00:19:09.892Z,21.30
2022-12-03T00:23:12.739Z,23.23
2022-12-03T00:27:15.592Z,23.80
2022-12-03T00:31:21.300Z,19.95
2022-12-03T00:35:24.195Z,22.77
2022-12-03T00:39:27.064Z,23.92
2022-12-03T00:43:29.894Z,27.58
2022-12-03T00:47:34.025Z,25.25
2022-12-03T00:51:36.856Z,27.08
2022-12-03T00:55:39.621Z,25.80
2022-12-03T00:59:42.486Z,26.25
2022-12-03T01:03:46.872Z,24.58
2022-12-03T01:07:49.788Z,27.27
2022-12-03T01:11:52.717Z,27.73
2022-12-03T01:15:55.579Z,28.20
2022-12-03T01:20:01.541Z,26.63
2022-12-03T01:24:05.587Z,27.83
2022-12-03T01:28:08.393Z,23.88
2022-12-03T01:32:18.109Z,31.80
2022-12-03T01:36:22.366Z,27.52
2022-12-03T01:40:25.276Z,22.85
2022-12-03T01:44:29.475Z,27.05
2022-12-03T01:48:36.323Z,28.08
2022-12-03T01:52:41.112Z,30.30
2022-12-03T01:56:44.050Z,26.45
2022-12-03T02:00:46.939Z,29.60
2022-12-03T02:04:50.480Z,25.83
2022-12-03T02:08:59.763Z,25.05
2022-12-03T02:13:06.947Z,25.35
2022-12-03T02:17:10.992Z,31.05
2022-12-03T02:21:20.858Z,28.30
2022-12-03T02:25:26.915Z,29.50
2022-12-03T02:29:29.795Z,24.17
2022-12-03T02:33:33.469Z,25.52
2022-12-03T02:37:41.330Z,23.58
2022-12-03T02:42:03.487Z,25.50
2022-12-03T02:46:09.742Z,26.10
2022-12-03T02:50:18.537Z,28.38
2022-12-03T02:54:21.909Z,26.55
2022-12-03T02:58:27.821Z,27.38
2022-12-03T03:02:31.128Z,27.55
2022-12-03T03:06:37.675Z,26.65
2022-12-03T03:10:44.085Z,25.98
2022-12-03T03:14:48.657Z,27.15
2022-12-03T03:18:51.510Z,24.15
2022-12-03T03:22:54.375Z,32.35
2022-12-03T03:26:57.223Z,27.30
2022-12-03T03:31:03.017Z,28.27
2022-12-03T03:35:07.136Z,30.50
2022-12-03T03:39:10.156Z,27.40
2022-12-03T03:43:14.019Z,29.42
2022-12-03T03:47:19.032Z,27.13
2022-12-03T03:51:22.217Z,23.75
2022-12-03T03:55:25.231Z,28.23
2022-12-03T03:59:29.284Z,26.75
2022-12-03T04:03:33.459Z,26.73
2022-12-03T04:07:36.328Z,29.35
2022-12-03T04:11:56.694Z,26.33
2022-12-03T04:15:59.531Z,31.50
2022-12-03T04:20:04.053Z,30.02
2022-12-03T04:24:09.364Z,31.02
2022-12-03T04:28:41.164Z,30.00
2022-12-03T04:33:01.732Z,29.88
2022-12-03T04:37:06.106Z,30.33
2022-12-03T04:41:08.959Z,31.10
2022-12-03T04:45:12.223Z,33.10
2022-12-03T04:49:15.054Z,29.75
2022-12-03T04:53:19.213Z,34.75
2022-12-03T04:57:22.025Z,31.08
2022-12-03T05:01:24.955Z,37.65
2022-12-03T05:05:27.825Z,32.33
2022-12-03T05:09:33.075Z,34.63
2022-12-03T05:13:35.988Z,31.75
2022-12-03T05:17:38.808Z,32.38
2022-12-03T05:21:41.583Z,30.15
2022-12-03T05:25:45.728Z,34.60
2022-12-03T05:29:48.760Z,34.83
2022-12-03T05:33:51.782Z,35.03
2022-12-03T05:37:54.742Z,34.38
2022-12-03T05:42:16.386Z,34.17
2022-12-03T05:46:19.583Z,31.23
2022-12-03T05:50:24.033Z,36.90
2022-12-03T05:54:27.003Z,30.08
2022-12-03T05:58:31.157Z,35.63
2022-12-03T06:02:34.222Z,32.42
2022-12-03T06:06:37.084Z,37.58
2022-12-03T06:10:39.900Z,36.95
2022-12-03T06:14:44.072Z,40.60
2022-12-03T06:18:46.901Z,34.08
2022-12-03T06:22:49.740Z,35.38
2022-12-03T06:26:52.587Z,34.33
2022-12-03T06:30:56.783Z,35.63
2022-12-03T06:35:00.147Z,37.97
2022-12-03T06:39:03.004Z,34.85
2022-12-03T06:43:05.859Z,35.53
2022-12-03T06:47:10.007Z,38.25
2022-12-03T06:51:12.813Z,35.63
2022-12-03T06:55:15.708Z,33.45
2022-12-03T06:59:18.584Z,33.72
2022-12-03T07:03:22.908Z,34.40
2022-12-03T07:07:25.821Z,36.28
2022-12-03T07:11:39.978Z,37.95
2022-12-03T07:15:42.978Z,40.28
2022-12-03T07:19:47.596Z,35.50
2022-12-03T07:23:50.415Z,38.17
2022-12-03T07:27:53.892Z,32.75
2022-12-03T07:31:56.813Z,31.70
2022-12-03T07:36:01.008Z,34.20
2022-12-03T07:40:04.479Z,36.08
2022-12-03T07:44:13.772Z,33.97
2022-12-03T07:48:17.362Z,38.60
2022-12-03T07:52:21.539Z,33.83
2022-12-03T07:56:24.340Z,34.00
2022-12-03T08:00:27.193Z,31.92
2022-12-03T08:04:30.026Z,32.50
2022-12-03T08:08:34.188Z,31.58
2022-12-03T08:12:43.003Z,35.38
2022-12-03T08:16:47.565Z,31.17
2022-12-03T08:20:52.527Z,35.95
2022-12-03T08:24:56.906Z,36.65
2022-12-03T08:28:59.708Z,33.08
2022-12-03T08:33:02.897Z,33.78
2022-12-03T08:37:14.138Z,36.90
2022-12-03T08:41:40.190Z,33.40
2022-12-03T08:45:43.566Z,34.63
2022-12-03T08:49:51.536Z,39.42
2022-12-03T08:54:02.195Z,34.47
2022-12-03T08:58:20.403Z,30.73
2022-12-03T09:02:31.992Z,31.67
2022-12-03T09:06:34.776Z,33.60
2022-12-03T09:10:37.683Z,30.80
2022-12-03T09:14:41.936Z,26.83
2022-12-03T09:18:44.764Z,28.05
2022-12-03T09:22:47.645Z,29.00
2022-12-03T09:26:50.667Z,30.23
2022-12-03T09:30:54.805Z,27.00
2022-12-03T09:34:58.006Z,26.60
2022-12-03T09:39:00.826Z,24.77
2022-12-03T09:43:03.776Z,23.45
2022-12-03T09:47:08.532Z,22.90
2022-12-03T09:51:12.121Z,21.92
2022-12-03T09:55:18.424Z,22.80
2022-12-03T09:59:23.059Z,22.17
2022-12-03T10:03:30.919Z,20.42
2022-12-03T10:07:33.846Z,22.42
2022-12-03T10:11:37.076Z,20.00
2022-12-03T10:15:40.204Z,21.95
2022-12-03T10:19:44.964Z,20.77
2022-12-03T10:23:55.098Z,21.27
2022-12-03T10:28:01.438Z,21.85
2022-12-03T10:32:07.119Z,23.20
2022-12-03T10:36:23.379Z,23.45
2022-12-03T10:40:27.835Z,19.95
2022-12-03T10:44:30.960Z,20.13
2022-12-03T10:48:33.778Z,24.08
2022-12-03T10:52:38.426Z,21.73
2022-12-03T10:56:41.661Z,22.15
2022-12-03T11:00:44.493Z,20.70
2022-12-03T11:04:47.378Z,22.38
2022-12-03T11:08:57.077Z,19.85
2022-12-03T11:13:38.327Z,21.35
2022-12-03T11:17:50.261Z,21.42
2022-12-03T11:22:24.927Z,20.13
2022-12-03T11:27:06.734Z,21.88
2022-12-03T11:31:35.585Z,22.73
2022-12-03T11:36:31.637Z,21.73
2022-12-03T11:41:10.480Z,20.17
2022-12-03T11:45:24.242Z,20.10
2022-12-03T11:49:39.075Z,18.38
2022-12-03T11:53:46.101Z,18.20
2022-12-03T11:57:50.333Z,20.88
2022-12-03T12:01:53.102Z,22.85
2022-12-03T12:06:07.657Z,20.27
2022-12-03T12:10:12.068Z,19.42
2022-12-03T12:14:26.969Z,20.02
2022-12-03T12:18:43.755Z,21.73
2022-12-03T12:22:46.582Z,21.50
2022-12-03T12:26:51.592Z,17.15
2022-12-03T12:30:55.753Z,21.95
2022-12-03T12:35:03.085Z,17.85
2022-12-03T12:39:11.378Z,19.65
2022-12-03T12:43:24.060Z,19.35
2022-12-03T12:47:30.978Z,20.30
2022-12-03T12:51:34.007Z,19.60
2022-12-03T12:55:37.723Z,19.92
2022-12-03T12:59:40.779Z,22.05
2022-12-03T13:03:44.991Z,22.77
2022-12-03T13:07:47.987Z,20.20
2022-12-03T13:11:54.567Z,20.02
2022-12-03T13:16:08.317Z,23.70
2022-12-03T13:20:20.452Z,22.33
2022-12-03T13:24:31.586Z,21.80
2022-12-03T13:28:36.137Z,23.40
2022-12-03T13:32:39.889Z,23.15
2022-12-03T13:36:53.561Z,23.73
2022-12-03T13:41:02.720Z,21.08
2022-12-03T13:45:31.623Z,23.92
2022-12-03T13:49:35.974Z,22.65
2022-12-03T13:53:41.742Z,24.50
2022-12-03T13:57:44.597Z,22.25
2022-12-03T14:01:47.517Z,20.77
2022-12-03T14:05:50.462Z,24.50
2022-12-03T14:09:54.935Z,24.50
2022-12-03T14:13:58.030Z,28.83
2022-12-03T14:18:00.930Z,28.38
2022-12-03T14:22:06.640Z,22.27
2022-12-03T14:26:10.938Z,23.40
2022-12-03T14:30:14.794Z,26.13
2022-12-03T14:34:17.626Z,26.50
2022-12-03T14:38:20.563Z,26.15
2022-12-03T14:42:24.903Z,27.17
2022-12-03T14:46:27.880Z,25.17
2022-12-03T14:50:30.900Z,24.73
2022-12-03T14:54:33.878Z,27.10
2022-12-03T14:58:38.336Z,26.77
2022-12-03T15:02:41.198Z,30.75
2022-12-03T15:06:44.169Z,32.22
2022-12-03T15:10:47.668Z,28.25
2022-12-03T15:14:51.875Z,28.23
2022-12-03T15:18:54.729Z,30.27
2022-12-03T15:22:57.566Z,31.73
2022-12-03T15:27:00.652Z,29.73
2022-12-03T15:31:04.855Z,32.88
2022-12-03T15:35:08.550Z,26.20
2022-12-03T15:39:26.457Z,28.48
2022-12-03T15:43:29.342Z,30.95
2022-12-03T15:47:33.595Z,30.42
2022-12-03T15:51:36.414Z,33.45
2022-12-03T15:55:39.242Z,31.77
2022-12-03T15:59:43.000Z,33.85
2022-12-03T16:03:47.344Z,31.35
2022-12-03T16:07:53.310Z,32.88
2022-12-03T16:11:56.309Z,35.38
2022-12-03T16:15:59.297Z,31.77
2022-12-03T16:20:04.226Z,36.55
2022-12-03T16:24:07.540Z,33.50
2022-12-03T16:28:10.471Z,34.17
2022-12-03T16:32:13.613Z,36.80
2022-12-03T16:36:18.088Z,35.92
2022-12-03T16:40:21.223Z,32.25
2022-12-03T16:44:32.620Z,36.45
2022-12-03T16:48:35.556Z,37.83
2022-12-03T16:52:39.711Z,36.22
2022-12-03T16:56:42.765Z,38.63
2022-12-03T17:00:45.875Z,37.30
2022-12-03T17:04:48.836Z,35.53
2022-12-03T17:08:53.076Z,37.67
2022-12-03T17:13:11.328Z,36.55
2022-12-03T17:17:14.287Z,36.47
2022-12-03T17:21:17.202Z,39.58
2022-12-03T17:25:21.537Z,39.45
2022-12-03T17:29:24.367Z,36.92
2022-12-03T17:33:27.219Z,37.95
2022-12-03T17:37:30.194Z,40.97
2022-12-03T17:41:34.445Z,62.70
2022-12-03T17:45:39.699Z,49.08
2022-12-03T17:49:42.601Z,41.53
2022-12-03T17:53:45.632Z,54.13
2022-12-03T17:57:49.941Z,44.10
2022-12-03T18:01:52.875Z,42.38
2022-12-03T18:05:55.934Z,41.05
2022-12-03T18:10:02.135Z,40.55
2022-12-03T18:14:07.032Z,42.08
2022-12-03T18:18:09.904Z,39.50
2022-12-03T18:22:13.106Z,40.97
2022-12-03T18:26:16.177Z,42.53
2022-12-03T18:30:20.768Z,40.45
2022-12-03T18:34:23.722Z,41.08
2022-12-03T18:38:31.472Z,41.97
2022-12-03T18:42:34.381Z,42.90
2022-12-03T18:46:53.100Z,41.17
2022-12-03T18:50:57.377Z,42.08
2022-12-03T18:55:00.363Z,42.67
2022-12-03T18:59:06.557Z,39.00
2022-12-03T19:03:11.658Z,42.22
2022-12-03T19:07:14.831Z,40.42
2022-12-03T19:11:17.683Z,39.90
2022-12-03T19:15:28.125Z,42.67
2022-12-03T19:19:32.519Z,43.88
2022-12-03T19:23:36.116Z,41.83
2022-12-03T19:27:38.941Z,37.22
2022-12-03T19:31:41.835Z,42.20
2022-12-03T19:35:46.067Z,42.22
2022-12-03T19:39:48.977Z,40.15
2022-12-03T19:43:57.222Z,44.25
2022-12-03T19:48:00.861Z,44.28
2022-12-03T19:52:05.524Z,40.72
2022-12-03T19:56:13.811Z,42.17
2022-12-03T20:00:19.785Z,37.83
2022-12-03T20:04:22.741Z,44.22
2022-12-03T20:08:26.969Z,40.78
2022-12-03T20:12:29.775Z,43.38
2022-12-03T20:16:36.648Z,42.13
2022-12-03T20:20:39.541Z,44.92
2022-12-03T20:24:43.786Z,45.97
2022-12-03T20:28:47.833Z,43.22
2022-12-03T20:32:51.088Z,41.30
2022-12-03T20:36:53.924Z,45.95
2022-12-03T20:41:02.260Z,43.13
2022-12-03T20:45:05.976Z,44.08
2022-12-03T20:49:09.034Z,41.72
2022-12-03T20:53:24.216Z,43.55
2022-12-03T20:57:29.242Z,42.95
2022-12-03T21:01:32.440Z,40.38
2022-12-03T21:05:35.465Z,42.50
2022-12-03T21:09:41.623Z,40.45
2022-12-03T21:13:46.317Z,43.08
2022-12-03T21:17:49.651Z,40.05
2022-12-03T21:21:52.584Z,39.67
2022-12-03T21:25:55.548Z,38.65
2022-12-03T21:29:59.766Z,38.58
2022-12-03T21:34:02.791Z,36.50
2022-12-03T21:38:05.986Z,35.67
2022-12-03T21:42:34.113Z,35.83
2022-12-03T21:47:11.454Z,37.60
2022-12-03T21:51:01.030Z,35.22
2022-12-03T21:55:04.751Z,32.28
2022-12-03T21:59:07.563Z,35.60
2022-12-03T22:03:12.072Z,36.47
2022-12-03T22:07:14.932Z,35.28
2022-12-03T22:11:21.158Z,37.90
2022-12-03T22:15:24.085Z,34.83
2022-12-03T22:19:28.522Z,34.55
2022-12-03T22:23:31.674Z,34.33
2022-12-03T22:27:34.659Z,33.72
2022-12-03T22:31:37.549Z,32.17
2022-12-03T22:35:41.728Z,38.15
2022-12-03T22:39:44.587Z,34.55
2022-12-03T22:43:48.088Z,36.10
2022-12-03T22:47:50.956Z,34.13
2022-12-03T22:51:55.164Z,33.67
2022-12-03T22:56:01.100Z,32.78
2022-12-03T23:00:07.109Z,38.47
2022-12-03T23:04:11.847Z,31.23
2022-12-03T23:08:18.497Z,34.22
2022-12-03T23:12:21.404Z,31.25
2022-12-03T23:16:27.070Z,33.22
2022-12-03T23:20:30.369Z,32.33
2022-12-03T23:24:34.565Z,29.95
2022-12-03T23:28:40.702Z,33.20
2022-12-03T23:32:44.388Z,31.38
2022-12-03T23:36:47.304Z,35.20
2022-12-03T23:40:52.889Z,28.95
2022-12-03T23:44:55.726Z,31.80
2022-12-03T23:49:00.059Z,29.45
2022-12-03T23:53:02.975Z,29.88
2022-12-03T23:57:07.125Z,31.83
